METAR AND TAF INFORMATION
METAR FOR KSAN
KSAN 130651Z 15008KT 10SM BKN039 16/09 A3005 RMK AO2 SLP176 T01610094 $
KSAN 130551Z 20005KT 10SM BKN035 16/09 A3005 RMK AO2 SLP174 T01610094 10172 20161 51016 $
KSAN 130451Z 19005KT 10SM BKN031 16/09 A3004 RMK AO2 SLP171 T01610089 $
KSAN 130557Z 1306/1412 19007KT P6SM OVC030
FM131600 18013G20KT P6SM SCT020 BKN035
FM132200 19014G22KT P6SM VCSH SCT020 BKN035
FM140100 19013G20KT P6SM -SHRA SCT020 BKN035
FM140600 29007KT P6SM VCSH SCT020 BKN035

 AIRPORT MAP

 RUNWAY INFORMATION
Runway 09 Runway length 9401 ft Runway width 200 ft
Runway elevation 14 ft Runway displaced threshold 700 ft Runway heading 106
Runway 27 Runway length 9401 ft Runway width 200 ft
Runway elevation 13 ft Runway displaced threshold 1810 ft Runway heading 286

 AIRPORT FREQUENCIES
Type A/D Name SOCAL APP/ Frequency 119.6 MHZ
Type ATIS Name ATIS Frequency 134.8 MHZ
Type CLD Name CLNC DEL Frequency 125.9 MHZ
Type GND Name GND Frequency 123.9 MHZ
Type MISC Name CG Frequency 157.15 MHZ
Type MISC Name CG Frequency 898.4 MHZ
Type TWR Name LINDBERGH Frequency 118.3 MHZ
Type UNIC Name UNICOM Frequency 122.95 MHZ

 AIRPORT NEAR NAVIGATION AIDS
Type NDB Name Boing Frequency 245 KHZ

-